sensor_id;sensor_type;location;lat;lon;timestamp;pressure;altitude;pressure_sealevel;temperature;humidity
12987;BME280;58897;51.960;5.582;2023-09-19T00:01:43;100470.50;;;15.44;100.00
12987;BME280;58897;51.960;5.582;2023-09-19T00:04:12;100473.22;;;15.44;100.00
12987;BME280;58897;51.960;5.582;2023-09-19T00:06:41;100472.78;;;15.41;100.00
12987;BME280;58897;51.960;5.582;2023-09-19T00:09:09;100476.25;;;15.56;100.00
12987;BME280;58897;51.960;5.582;2023-09-19T00:11:37;100469.94;;;15.49;100.00
12987;BME280;58897;51.960;5.582;2023-09-19T00:14:05;100482.13;;;15.60;100.00
12987;BME280;58897;51.960;5.582;2023-09-19T00:16:34;100481.03;;;15.54;100.00
12987;BME280;58897;51.960;5.582;2023-09-19T00:19:01;100480.31;;;15.32;100.00
12987;BME280;58897;51.960;5.582;2023-09-19T00:21:35;100494.81;;;15.46;100.00
12987;BME280;58897;51.960;5.582;2023-09-19T00:24:04;100489.38;;;15.46;100.00
12987;BME280;58897;51.960;5.582;2023-09-19T00:26:32;100490.69;;;15.50;100.00
12987;BME280;58897;51.960;5.582;2023-09-19T00:29:00;100494.00;;;15.46;100.00
12987;BME280;58897;51.960;5.582;2023-09-19T00:31:34;100494.25;;;15.57;100.00
12987;BME280;58897;51.960;5.582;2023-09-19T00:34:04;100499.25;;;15.47;100.00
12987;BME280;58897;51.960;5.582;2023-09-19T00:36:30;100497.53;;;15.46;100.00
12987;BME280;58897;51.960;5.582;2023-09-19T00:38:57;100502.53;;;15.42;100.00
12987;BME280;58897;51.960;5.582;2023-09-19T00:41:23;100507.78;;;15.44;100.00
12987;BME280;58897;51.960;5.582;2023-09-19T00:43:51;100504.28;;;15.57;100.00
12987;BME280;58897;51.960;5.582;2023-09-19T00:46:17;100504.50;;;15.55;100.00
12987;BME280;58897;51.960;5.582;2023-09-19T00:48:44;100507.41;;;15.47;100.00
12987;BME280;58897;51.960;5.582;2023-09-19T00:51:13;100513.28;;;15.51;100.00
12987;BME280;58897;51.960;5.582;2023-09-19T00:53:40;100518.56;;;15.59;100.00
12987;BME280;58897;51.960;5.582;2023-09-19T00:56:12;100524.19;;;15.51;100.00
12987;BME280;58897;51.960;5.582;2023-09-19T00:58:39;100523.56;;;15.49;100.00
12987;BME280;58897;51.960;5.582;2023-09-19T01:01:06;100525.16;;;15.43;100.00
12987;BME280;58897;51.960;5.582;2023-09-19T01:03:34;100522.50;;;15.50;100.00
12987;BME280;58897;51.960;5.582;2023-09-19T01:06:01;100528.78;;;15.50;100.00
12987;BME280;58897;51.960;5.582;2023-09-19T01:08:28;100529.56;;;15.44;100.00
12987;BME280;58897;51.960;5.582;2023-09-19T01:11:01;100531.63;;;15.35;100.00
12987;BME280;58897;51.960;5.582;2023-09-19T01:13:48;100538.94;;;15.35;100.00
12987;BME280;58897;51.960;5.582;2023-09-19T01:16:53;100528.47;;;15.38;100.00
12987;BME280;58897;51.960;5.582;2023-09-19T01:19:42;100520.13;;;15.40;100.00
12987;BME280;58897;51.960;5.582;2023-09-19T01:22:18;100520.53;;;15.43;100.00
12987;BME280;58897;51.960;5.582;2023-09-19T01:28:15;100520.53;;;15.37;100.00
12987;BME280;58897;51.960;5.582;2023-09-19T01:30:46;100520.53;;;15.37;100.00
12987;BME280;58897;51.960;5.582;2023-09-19T01:33:13;100524.88;;;15.31;100.00
12987;BME280;58897;51.960;5.582;2023-09-19T01:35:41;100522.56;;;15.28;100.00
12987;BME280;58897;51.960;5.582;2023-09-19T01:38:07;100515.09;;;15.43;100.00
12987;BME280;58897;51.960;5.582;2023-09-19T01:41:01;100517.34;;;15.33;100.00
12987;BME280;58897;51.960;5.582;2023-09-19T01:43:35;100524.66;;;15.33;100.00
12987;BME280;58897;51.960;5.582;2023-09-19T01:46:18;100520.66;;;15.22;100.00
12987;BME280;58897;51.960;5.582;2023-09-19T01:51:52;100527.34;;;15.20;100.00
12987;BME280;58897;51.960;5.582;2023-09-19T01:54:27;100526.66;;;15.11;100.00
12987;BME280;58897;51.960;5.582;2023-09-19T01:57:03;100532.94;;;15.12;100.00
12987;BME280;58897;51.960;5.582;2023-09-19T01:59:36;100528.94;;;15.08;100.00
12987;BME280;58897;51.960;5.582;2023-09-19T02:02:05;100525.78;;;15.04;100.00
12987;BME280;58897;51.960;5.582;2023-09-19T02:04:33;100524.88;;;14.97;100.00
12987;BME280;58897;51.960;5.582;2023-09-19T02:07:02;100527.56;;;14.91;100.00
12987;BME280;58897;51.960;5.582;2023-09-19T02:09:29;100521.91;;;14.86;100.00
12987;BME280;58897;51.960;5.582;2023-09-19T02:11:55;100530.97;;;14.99;100.00
12987;BME280;58897;51.960;5.582;2023-09-19T02:14:22;100534.56;;;14.78;100.00
12987;BME280;58897;51.960;5.582;2023-09-19T02:16:49;100534.19;;;14.81;100.00
12987;BME280;58897;51.960;5.582;2023-09-19T02:19:17;100525.00;;;14.82;100.00
12987;BME280;58897;51.960;5.582;2023-09-19T02:21:43;100525.41;;;14.79;100.00
12987;BME280;58897;51.960;5.582;2023-09-19T02:24:10;100535.25;;;14.80;100.00
12987;BME280;58897;51.960;5.582;2023-09-19T02:26:36;100519.56;;;14.82;100.00
12987;BME280;58897;51.960;5.582;2023-09-19T02:29:03;100520.09;;;14.71;100.00
12987;BME280;58897;51.960;5.582;2023-09-19T02:31:31;100516.13;;;14.67;100.00
12987;BME280;58897;51.960;5.582;2023-09-19T02:33:57;100518.59;;;14.62;100.00
12987;BME280;58897;51.960;5.582;2023-09-19T02:36:24;100532.88;;;14.50;100.00
12987;BME280;58897;51.960;5.582;2023-09-19T02:38:50;100529.34;;;14.49;100.00
12987;BME280;58897;51.960;5.582;2023-09-19T02:41:17;100529.38;;;14.56;100.00
12987;BME280;58897;51.960;5.582;2023-09-19T02:43:43;100531.22;;;14.49;100.00
12987;BME280;58897;51.960;5.582;2023-09-19T02:46:10;100529.78;;;14.53;100.00
12987;BME280;58897;51.960;5.582;2023-09-19T02:48:38;100525.91;;;14.41;100.00
12987;BME280;58897;51.960;5.582;2023-09-19T02:51:04;100524.31;;;14.46;100.00
12987;BME280;58897;51.960;5.582;2023-09-19T02:53:31;100543.13;;;14.48;100.00
12987;BME280;58897;51.960;5.582;2023-09-19T02:55:58;100537.50;;;14.49;100.00
12987;BME280;58897;51.960;5.582;2023-09-19T02:58:25;100533.00;;;14.42;100.00
12987;BME280;58897;51.960;5.582;2023-09-19T03:00:51;100541.34;;;14.34;100.00
12987;BME280;58897;51.960;5.582;2023-09-19T03:03:18;100545.06;;;14.33;100.00
12987;BME280;58897;51.960;5.582;2023-09-19T03:05:45;100540.38;;;14.27;100.00
12987;BME280;58897;51.960;5.582;2023-09-19T03:08:14;100534.19;;;14.33;100.00
12987;BME280;58897;51.960;5.582;2023-09-19T03:10:46;100537.94;;;14.32;100.00
12987;BME280;58897;51.960;5.582;2023-09-19T03:13:13;100542.91;;;14.28;100.00
12987;BME280;58897;51.960;5.582;2023-09-19T03:15:43;100536.25;;;14.31;100.00
12987;BME280;58897;51.960;5.582;2023-09-19T03:18:14;100533.66;;;14.22;100.00
12987;BME280;58897;51.960;5.582;2023-09-19T03:20:40;100543.56;;;14.30;100.00
12987;BME280;58897;51.960;5.582;2023-09-19T03:23:07;100528.09;;;14.31;100.00
12987;BME280;58897;51.960;5.582;2023-09-19T03:25:34;100515.38;;;14.31;100.00
12987;BME280;58897;51.960;5.582;2023-09-19T03:28:03;100518.22;;;14.23;100.00
12987;BME280;58897;51.960;5.582;2023-09-19T03:30:32;100501.50;;;14.26;100.00
12987;BME280;58897;51.960;5.582;2023-09-19T03:32:59;100515.06;;;14.26;100.00
12987;BME280;58897;51.960;5.582;2023-09-19T03:35:27;100524.34;;;14.32;100.00
12987;BME280;58897;51.960;5.582;2023-09-19T03:37:53;100517.69;;;14.13;100.00
12987;BME280;58897;51.960;5.582;2023-09-19T03:40:20;100527.03;;;14.10;100.00
12987;BME280;58897;51.960;5.582;2023-09-19T03:42:48;100528.88;;;14.24;100.00
12987;BME280;58897;51.960;5.582;2023-09-19T03:45:15;100515.88;;;14.20;100.00
12987;BME280;58897;51.960;5.582;2023-09-19T03:47:42;100519.34;;;14.14;100.00
12987;BME280;58897;51.960;5.582;2023-09-19T03:50:09;100516.25;;;14.17;100.00
12987;BME280;58897;51.960;5.582;2023-09-19T03:52:41;100514.63;;;14.22;100.00
12987;BME280;58897;51.960;5.582;2023-09-19T03:55:08;100503.53;;;14.17;100.00
12987;BME280;58897;51.960;5.582;2023-09-19T03:57:37;100505.13;;;14.12;100.00
12987;BME280;58897;51.960;5.582;2023-09-19T04:00:04;100508.56;;;14.20;100.00
12987;BME280;58897;51.960;5.582;2023-09-19T04:02:38;100506.38;;;14.09;100.00
12987;BME280;58897;51.960;5.582;2023-09-19T04:05:05;100513.53;;;14.17;100.00
12987;BME280;58897;51.960;5.582;2023-09-19T04:07:31;100513.66;;;14.09;100.00
12987;BME280;58897;51.960;5.582;2023-09-19T04:09:58;100502.28;;;13.99;100.00
12987;BME280;58897;51.960;5.582;2023-09-19T04:12:24;100512.81;;;14.08;100.00
12987;BME280;58897;51.960;5.582;2023-09-19T04:14:51;100528.34;;;13.93;100.00
12987;BME280;58897;51.960;5.582;2023-09-19T04:17:18;100531.41;;;14.05;100.00
12987;BME280;58897;51.960;5.582;2023-09-19T04:19:45;100533.69;;;14.08;100.00
12987;BME280;58897;51.960;5.582;2023-09-19T04:22:12;100545.75;;;13.99;100.00
12987;BME280;58897;51.960;5.582;2023-09-19T04:24:39;100558.81;;;14.10;100.00
12987;BME280;58897;51.960;5.582;2023-09-19T04:27:06;100561.66;;;14.02;100.00
12987;BME280;58897;51.960;5.582;2023-09-19T04:29:33;100573.03;;;14.12;100.00
12987;BME280;58897;51.960;5.582;2023-09-19T04:32:00;100573.16;;;14.04;100.00
12987;BME280;58897;51.960;5.582;2023-09-19T04:34:26;100579.50;;;14.11;100.00
12987;BME280;58897;51.960;5.582;2023-09-19T04:36:53;100573.81;;;14.06;100.00
12987;BME280;58897;51.960;5.582;2023-09-19T04:39:20;100582.53;;;14.01;100.00
12987;BME280;58897;51.960;5.582;2023-09-19T04:41:48;100579.50;;;14.11;100.00
12987;BME280;58897;51.960;5.582;2023-09-19T04:44:14;100581.56;;;14.09;100.00
12987;BME280;58897;51.960;5.582;2023-09-19T04:46:42;100591.59;;;14.08;100.00
12987;BME280;58897;51.960;5.582;2023-09-19T04:49:09;100581.09;;;14.05;100.00
12987;BME280;58897;51.960;5.582;2023-09-19T04:51:35;100582.53;;;14.01;100.00
12987;BME280;58897;51.960;5.582;2023-09-19T04:54:03;100595.34;;;14.07;100.00
12987;BME280;58897;51.960;5.582;2023-09-19T04:56:30;100598.13;;;14.14;100.00
12987;BME280;58897;51.960;5.582;2023-09-19T04:58:58;100599.94;;;14.07;100.00
12987;BME280;58897;51.960;5.582;2023-09-19T05:01:25;100591.41;;;14.10;100.00
12987;BME280;58897;51.960;5.582;2023-09-19T05:03:52;100598.88;;;14.08;100.00
12987;BME280;58897;51.960;5.582;2023-09-19T05:06:20;100596.84;;;14.10;100.00
12987;BME280;58897;51.960;5.582;2023-09-19T05:08:49;100588.22;;;14.06;100.00
12987;BME280;58897;51.960;5.582;2023-09-19T05:11:21;100595.72;;;14.04;100.00
12987;BME280;58897;51.960;5.582;2023-09-19T05:13:49;100591.78;;;14.07;100.00
12987;BME280;58897;51.960;5.582;2023-09-19T05:16:22;100597.41;;;14.05;100.00
12987;BME280;58897;51.960;5.582;2023-09-19T05:18:49;100593.00;;;14.04;100.00
12987;BME280;58897;51.960;5.582;2023-09-19T05:21:16;100590.94;;;14.06;100.00
12987;BME280;58897;51.960;5.582;2023-09-19T05:23:43;100594.78;;;14.12;100.00
12987;BME280;58897;51.960;5.582;2023-09-19T05:26:10;100596.84;;;14.10;100.00
12987;BME280;58897;51.960;5.582;2023-09-19T05:28:39;100580.34;;;14.11;100.00
12987;BME280;58897;51.960;5.582;2023-09-19T05:31:05;100594.94;;;14.10;100.00
12987;BME280;58897;51.960;5.582;2023-09-19T05:33:32;100591.84;;;14.13;100.00
12987;BME280;58897;51.960;5.582;2023-09-19T05:35:59;100592.53;;;14.15;100.00
12987;BME280;58897;51.960;5.582;2023-09-19T05:38:26;100595.88;;;14.17;100.00
12987;BME280;58897;51.960;5.582;2023-09-19T05:40:53;100596.06;;;14.16;100.00
12987;BME280;58897;51.960;5.582;2023-09-19T05:43:20;100611.44;;;14.09;100.00
12987;BME280;58897;51.960;5.582;2023-09-19T05:45:47;100599.88;;;14.21;100.00
12987;BME280;58897;51.960;5.582;2023-09-19T05:48:14;100600.09;;;14.20;100.00
12987;BME280;58897;51.960;5.582;2023-09-19T05:50:43;100599.19;;;14.13;100.00
12987;BME280;58897;51.960;5.582;2023-09-19T05:53:10;100595.75;;;14.26;100.00
12987;BME280;58897;51.960;5.582;2023-09-19T05:55:39;100591.94;;;14.20;100.00
12987;BME280;58897;51.960;5.582;2023-09-19T05:58:06;100604.03;;;14.17;100.00
12987;BME280;58897;51.960;5.582;2023-09-19T06:00:33;100603.81;;;14.19;100.00
12987;BME280;58897;51.960;5.582;2023-09-19T06:03:02;100608.03;;;14.21;100.00
12987;BME280;58897;51.960;5.582;2023-09-19T06:05:28;100615.22;;;14.29;100.00
12987;BME280;58897;51.960;5.582;2023-09-19T06:07:58;100607.34;;;14.34;100.00
12987;BME280;58897;51.960;5.582;2023-09-19T06:10:32;100611.13;;;14.33;100.00
12987;BME280;58897;51.960;5.582;2023-09-19T06:12:58;100617.00;;;14.37;100.00
12987;BME280;58897;51.960;5.582;2023-09-19T06:15:25;100621.22;;;14.39;100.00
12987;BME280;58897;51.960;5.582;2023-09-19T06:17:54;100618.09;;;14.42;100.00
12987;BME280;58897;51.960;5.582;2023-09-19T06:20:28;100615.47;;;14.49;100.00
12987;BME280;58897;51.960;5.582;2023-09-19T06:22:54;100617.25;;;14.42;100.00
12987;BME280;58897;51.960;5.582;2023-09-19T06:25:21;100618.25;;;14.55;100.00
12987;BME280;58897;51.960;5.582;2023-09-19T06:27:49;100628.22;;;14.48;100.00
12987;BME280;58897;51.960;5.582;2023-09-19T06:30:19;100618.97;;;14.64;100.00
12987;BME280;58897;51.960;5.582;2023-09-19T06:32:46;100636.84;;;14.52;100.00
12987;BME280;58897;51.960;5.582;2023-09-19T06:35:14;100639.34;;;14.53;100.00
12987;BME280;58897;51.960;5.582;2023-09-19T06:37:42;100631.78;;;14.49;100.00
12987;BME280;58897;51.960;5.582;2023-09-19T06:40:14;100634.41;;;14.63;100.00
12987;BME280;58897;51.960;5.582;2023-09-19T06:42:42;100628.59;;;14.66;100.00
12987;BME280;58897;51.960;5.582;2023-09-19T06:45:09;100626.72;;;14.67;100.00
12987;BME280;58897;51.960;5.582;2023-09-19T06:47:40;100634.03;;;14.66;100.00
12987;BME280;58897;51.960;5.582;2023-09-19T06:50:07;100630.72;;;14.71;100.00
12987;BME280;58897;51.960;5.582;2023-09-19T06:52:40;100624.72;;;14.75;100.00
12987;BME280;58897;51.960;5.582;2023-09-19T06:55:07;100623.28;;;14.79;100.00
12987;BME280;58897;51.960;5.582;2023-09-19T06:57:35;100630.00;;;14.83;100.00
12987;BME280;58897;51.960;5.582;2023-09-19T07:00:02;100628.97;;;14.84;100.00
12987;BME280;58897;51.960;5.582;2023-09-19T07:02:33;100633.56;;;14.84;100.00
12987;BME280;58897;51.960;5.582;2023-09-19T07:05:00;100622.94;;;14.89;100.00
12987;BME280;58897;51.960;5.582;2023-09-19T07:07:27;100641.41;;;14.94;100.00
12987;BME280;58897;51.960;5.582;2023-09-19T07:09:53;100619.91;;;14.99;100.00
12987;BME280;58897;51.960;5.582;2023-09-19T07:12:20;100620.16;;;15.04;100.00
12987;BME280;58897;51.960;5.582;2023-09-19T07:14:46;100618.81;;;15.21;100.00
12987;BME280;58897;51.960;5.582;2023-09-19T07:17:13;100627.50;;;15.10;100.00
12987;BME280;58897;51.960;5.582;2023-09-19T07:19:45;100639.16;;;15.25;100.00
12987;BME280;58897;51.960;5.582;2023-09-19T07:22:11;100624.06;;;15.22;100.00
12987;BME280;58897;51.960;5.582;2023-09-19T07:24:38;100635.13;;;15.21;100.00
12987;BME280;58897;51.960;5.582;2023-09-19T07:27:05;100640.22;;;15.30;100.00
12987;BME280;58897;51.960;5.582;2023-09-19T07:29:31;100636.00;;;15.28;100.00
12987;BME280;58897;51.960;5.582;2023-09-19T07:31:58;100639.09;;;15.46;100.00
12987;BME280;58897;51.960;5.582;2023-09-19T07:34:24;100641.66;;;15.54;100.00
12987;BME280;58897;51.960;5.582;2023-09-19T07:36:51;100649.88;;;15.61;100.00
12987;BME280;58897;51.960;5.582;2023-09-19T07:39:18;100640.72;;;15.68;100.00
12987;BME280;58897;51.960;5.582;2023-09-19T07:41:49;100641.25;;;15.51;100.00
12987;BME280;58897;51.960;5.582;2023-09-19T07:44:16;100651.97;;;15.59;100.00
12987;BME280;58897;51.960;5.582;2023-09-19T07:46:43;100647.41;;;15.66;100.00
12987;BME280;58897;51.960;5.582;2023-09-19T07:49:10;100661.25;;;15.71;100.00
12987;BME280;58897;51.960;5.582;2023-09-19T07:51:37;100667.53;;;15.71;100.00
12987;BME280;58897;51.960;5.582;2023-09-19T07:54:05;100646.97;;;16.03;100.00
12987;BME280;58897;51.960;5.582;2023-09-19T07:56:31;100642.81;;;16.14;100.00
12987;BME280;58897;51.960;5.582;2023-09-19T07:58:58;100652.09;;;16.32;100.00
12987;BME280;58897;51.960;5.582;2023-09-19T08:01:25;100645.56;;;16.20;100.00
12987;BME280;58897;51.960;5.582;2023-09-19T08:03:53;100641.94;;;16.60;100.00
12987;BME280;58897;51.960;5.582;2023-09-19T08:06:20;100654.09;;;16.58;100.00
12987;BME280;58897;51.960;5.582;2023-09-19T08:08:47;100630.31;;;16.39;100.00
12987;BME280;58897;51.960;5.582;2023-09-19T08:11:15;100640.47;;;16.84;100.00
12987;BME280;58897;51.960;5.582;2023-09-19T08:13:47;100636.94;;;16.84;100.00
12987;BME280;58897;51.960;5.582;2023-09-19T08:16:16;100642.97;;;16.79;100.00
12987;BME280;58897;51.960;5.582;2023-09-19T08:18:47;100637.75;;;16.97;100.00
12987;BME280;58897;51.960;5.582;2023-09-19T08:21:14;100643.19;;;17.37;100.00
12987;BME280;58897;51.960;5.582;2023-09-19T08:23:43;100640.47;;;17.10;100.00
12987;BME280;58897;51.960;5.582;2023-09-19T08:26:09;100638.19;;;17.34;100.00
12987;BME280;58897;51.960;5.582;2023-09-19T08:28:36;100642.56;;;17.35;100.00
12987;BME280;58897;51.960;5.582;2023-09-19T08:31:04;100638.28;;;17.84;100.00
12987;BME280;58897;51.960;5.582;2023-09-19T08:33:34;100640.06;;;17.59;100.00
12987;BME280;58897;51.960;5.582;2023-09-19T08:36:05;100642.34;;;17.69;100.00
12987;BME280;58897;51.960;5.582;2023-09-19T08:38:33;100630.97;;;18.29;100.00
12987;BME280;58897;51.960;5.582;2023-09-19T08:41:07;100639.22;;;17.59;100.00
12987;BME280;58897;51.960;5.582;2023-09-19T08:43:35;100635.41;;;17.60;100.00
12987;BME280;58897;51.960;5.582;2023-09-19T08:48:31;100637.28;;;17.72;100.00
12987;BME280;58897;51.960;5.582;2023-09-19T08:51:08;100643.09;;;17.89;100.00
12987;BME280;58897;51.960;5.582;2023-09-19T08:54:08;100618.75;;;18.25;100.00
12987;BME280;58897;51.960;5.582;2023-09-19T08:56:38;100625.50;;;18.29;100.00
12987;BME280;58897;51.960;5.582;2023-09-19T08:59:06;100618.25;;;18.41;100.00
12987;BME280;58897;51.960;5.582;2023-09-19T09:01:38;100622.59;;;19.11;100.00
12987;BME280;58897;51.960;5.582;2023-09-19T09:04:09;100624.19;;;18.70;100.00
12987;BME280;58897;51.960;5.582;2023-09-19T09:06:41;100618.94;;;18.99;100.00
12987;BME280;58897;51.960;5.582;2023-09-19T09:09:10;100618.97;;;18.93;100.00
12987;BME280;58897;51.960;5.582;2023-09-19T09:11:38;100637.59;;;19.34;100.00
12987;BME280;58897;51.960;5.582;2023-09-19T09:14:06;100619.06;;;18.80;100.00
12987;BME280;58897;51.960;5.582;2023-09-19T09:16:37;100620.41;;;18.71;100.00
12987;BME280;58897;51.960;5.582;2023-09-19T09:19:04;100613.84;;;18.78;100.00
12987;BME280;58897;51.960;5.582;2023-09-19T09:21:31;100606.06;;;19.67;100.00
12987;BME280;58897;51.960;5.582;2023-09-19T09:24:26;100608.97;;;20.68;100.00
12987;BME280;58897;51.960;5.582;2023-09-19T09:26:54;100618.91;;;19.49;100.00
12987;BME280;58897;51.960;5.582;2023-09-19T09:29:58;100612.25;;;19.81;100.00
12987;BME280;58897;51.960;5.582;2023-09-19T09:32:29;100617.16;;;20.27;100.00
12987;BME280;58897;51.960;5.582;2023-09-19T09:34:59;100601.28;;;19.45;100.00
12987;BME280;58897;51.960;5.582;2023-09-19T09:37:28;100603.22;;;20.58;100.00
12987;BME280;58897;51.960;5.582;2023-09-19T09:39:59;100610.38;;;21.12;100.00
12987;BME280;58897;51.960;5.582;2023-09-19T09:42:44;100616.38;;;20.38;100.00
12987;BME280;58897;51.960;5.582;2023-09-19T09:45:17;100597.88;;;21.16;100.00
12987;BME280;58897;51.960;5.582;2023-09-19T09:47:45;100601.44;;;19.86;100.00
12987;BME280;58897;51.960;5.582;2023-09-19T09:52:56;100605.91;;;20.47;100.00
12987;BME280;58897;51.960;5.582;2023-09-19T09:58:26;100586.28;;;21.26;100.00
12987;BME280;58897;51.960;5.582;2023-09-19T10:00:59;100591.16;;;21.12;100.00
12987;BME280;58897;51.960;5.582;2023-09-19T10:03:42;100590.16;;;20.42;100.00
12987;BME280;58897;51.960;5.582;2023-09-19T10:06:16;100598.22;;;21.43;100.00
12987;BME280;58897;51.960;5.582;2023-09-19T10:09:06;100598.34;;;21.48;100.00
12987;BME280;58897;51.960;5.582;2023-09-19T10:11:41;100583.16;;;21.11;100.00
12987;BME280;58897;51.960;5.582;2023-09-19T10:14:11;100573.31;;;20.80;100.00
12987;BME280;58897;51.960;5.582;2023-09-19T10:16:48;100580.63;;;20.45;100.00
12987;BME280;58897;51.960;5.582;2023-09-19T10:19:29;100592.25;;;22.09;100.00
12987;BME280;58897;51.960;5.582;2023-09-19T10:21:58;100579.91;;;21.60;100.00
12987;BME280;58897;51.960;5.582;2023-09-19T10:24:26;100595.22;;;21.33;100.00
12987;BME280;58897;51.960;5.582;2023-09-19T10:26:55;100596.38;;;20.01;100.00
12987;BME280;58897;51.960;5.582;2023-09-19T10:29:22;100587.47;;;21.41;100.00
12987;BME280;58897;51.960;5.582;2023-09-19T10:31:52;100600.94;;;20.55;100.00
12987;BME280;58897;51.960;5.582;2023-09-19T10:34:20;100604.34;;;20.80;100.00
12987;BME280;58897;51.960;5.582;2023-09-19T10:36:47;100587.38;;;20.83;100.00
12987;BME280;58897;51.960;5.582;2023-09-19T10:39:15;100587.78;;;19.80;100.00
12987;BME280;58897;51.960;5.582;2023-09-19T10:41:53;100580.16;;;20.48;100.00
12987;BME280;58897;51.960;5.582;2023-09-19T10:44:25;100589.75;;;20.09;100.00
12987;BME280;58897;51.960;5.582;2023-09-19T10:46:52;100601.03;;;20.49;100.00
12987;BME280;58897;51.960;5.582;2023-09-19T10:49:21;100576.69;;;20.22;100.00
12987;BME280;58897;51.960;5.582;2023-09-19T10:51:51;100583.47;;;20.38;100.00
12987;BME280;58897;51.960;5.582;2023-09-19T10:54:22;100566.53;;;21.40;100.00
12987;BME280;58897;51.960;5.582;2023-09-19T10:56:53;100571.47;;;22.01;100.00
12987;BME280;58897;51.960;5.582;2023-09-19T10:59:21;100546.56;;;20.75;100.00
12987;BME280;58897;51.960;5.582;2023-09-19T11:01:50;100544.09;;;21.43;100.00
12987;BME280;58897;51.960;5.582;2023-09-19T11:04:22;100546.16;;;21.13;100.00
12987;BME280;58897;51.960;5.582;2023-09-19T11:07:09;100547.66;;;22.07;100.00
12987;BME280;58897;51.960;5.582;2023-09-19T11:09:55;100543.00;;;22.07;100.00
12987;BME280;58897;51.960;5.582;2023-09-19T11:14:58;100541.31;;;20.74;100.00
12987;BME280;58897;51.960;5.582;2023-09-19T11:17:54;100531.09;;;21.27;100.00
12987;BME280;58897;51.960;5.582;2023-09-19T11:20:21;100532.38;;;20.67;100.00
12987;BME280;58897;51.960;5.582;2023-09-19T11:30:37;100530.06;;;20.22;100.00
12987;BME280;58897;51.960;5.582;2023-09-19T11:33:31;100518.06;;;21.00;100.00
12987;BME280;58897;51.960;5.582;2023-09-19T11:43:48;100520.22;;;21.21;100.00
12987;BME280;58897;51.960;5.582;2023-09-19T11:46:20;100525.09;;;20.84;100.00
12987;BME280;58897;51.960;5.582;2023-09-19T11:48:51;100510.03;;;20.63;100.00
12987;BME280;58897;51.960;5.582;2023-09-19T11:51:19;100514.97;;;20.31;100.00
12987;BME280;58897;51.960;5.582;2023-09-19T11:53:50;100514.97;;;21.31;100.00
12987;BME280;58897;51.960;5.582;2023-09-19T11:56:19;100511.84;;;20.92;100.00
12987;BME280;58897;51.960;5.582;2023-09-19T11:58:51;100512.53;;;20.53;100.00
12987;BME280;58897;51.960;5.582;2023-09-19T12:01:32;100518.59;;;20.44;100.00
12987;BME280;58897;51.960;5.582;2023-09-19T12:04:02;100508.50;;;20.26;100.00
12987;BME280;58897;51.960;5.582;2023-09-19T12:06:31;100497.75;;;20.66;100.00
12987;BME280;58897;51.960;5.582;2023-09-19T12:09:02;100494.44;;;21.22;100.00
12987;BME280;58897;51.960;5.582;2023-09-19T12:11:41;100503.72;;;20.98;100.00
12987;BME280;58897;51.960;5.582;2023-09-19T12:14:10;100500.28;;;20.90;100.00
12987;BME280;58897;51.960;5.582;2023-09-19T12:16:37;100523.75;;;20.22;100.00
12987;BME280;58897;51.960;5.582;2023-09-19T12:19:21;100522.09;;;19.91;100.00
12987;BME280;58897;51.960;5.582;2023-09-19T12:21:55;100520.91;;;19.51;100.00
12987;BME280;58897;51.960;5.582;2023-09-19T12:24:25;100529.47;;;19.36;100.00
12987;BME280;58897;51.960;5.582;2023-09-19T12:27:06;100526.75;;;19.36;100.00
12987;BME280;58897;51.960;5.582;2023-09-19T12:29:47;100538.38;;;19.14;100.00
12987;BME280;58897;51.960;5.582;2023-09-19T12:32:34;100526.16;;;18.91;100.00
12987;BME280;58897;51.960;5.582;2023-09-19T12:35:02;100521.69;;;18.97;100.00
12987;BME280;58897;51.960;5.582;2023-09-19T12:37:34;100526.31;;;18.96;100.00
12987;BME280;58897;51.960;5.582;2023-09-19T12:40:09;100527.69;;;18.87;100.00
12987;BME280;58897;51.960;5.582;2023-09-19T12:42:49;100532.34;;;18.80;100.00
12987;BME280;58897;51.960;5.582;2023-09-19T12:45:16;100512.06;;;18.88;100.00
12987;BME280;58897;51.960;5.582;2023-09-19T12:48:19;100508.88;;;18.91;100.00
12987;BME280;58897;51.960;5.582;2023-09-19T12:51:05;100515.41;;;18.72;100.00
12987;BME280;58897;51.960;5.582;2023-09-19T12:53:38;100518.94;;;18.72;100.00
12987;BME280;58897;51.960;5.582;2023-09-19T12:56:14;100531.75;;;18.78;100.00
12987;BME280;58897;51.960;5.582;2023-09-19T12:58:53;100507.63;;;18.69;100.00
12987;BME280;58897;51.960;5.582;2023-09-19T13:01:24;100524.53;;;18.84;100.00
12987;BME280;58897;51.960;5.582;2023-09-19T13:06:50;100517.63;;;18.81;100.00
12987;BME280;58897;51.960;5.582;2023-09-19T13:09:22;100512.03;;;18.70;100.00
12987;BME280;58897;51.960;5.582;2023-09-19T13:11:50;100517.91;;;18.73;100.00
12987;BME280;58897;51.960;5.582;2023-09-19T13:14:19;100527.84;;;18.68;100.00
12987;BME280;58897;51.960;5.582;2023-09-19T13:22:42;100523.25;;;18.62;100.00
12987;BME280;58897;51.960;5.582;2023-09-19T13:25:15;100532.91;;;18.64;100.00
12987;BME280;58897;51.960;5.582;2023-09-19T13:27:55;100517.84;;;18.55;100.00
12987;BME280;58897;51.960;5.582;2023-09-19T13:30:24;100522.03;;;18.58;100.00
12987;BME280;58897;51.960;5.582;2023-09-19T13:33:09;100533.41;;;18.55;100.00
12987;BME280;58897;51.960;5.582;2023-09-19T13:35:38;100531.75;;;18.54;100.00
12987;BME280;58897;51.960;5.582;2023-09-19T13:38:06;100527.06;;;18.61;100.00